Airport View

Enter AWOS ICAO identifier for current METAR.

ex. KFNL

K57C 251555Z AUTO 02006KT 10SM CLR 03/M03 A3025 RMK AO2 T00281031

25 Oct 2020 16:02

Frequency: 118.125

Phone: 262-642-1845

Other Area AWOS: KBUU - KUES - KMKE - KENW

TAF AMD KUES 251528Z 2515/2612 02008KT P6SM OVC035 FM252200 02008KT P6SM BKN025 FM260400 VRB04KT P6SM VCSH BKN014 FM260600 35005KT P6SM OVC010